createdAt,value
2019-03-20T00:02:08.785Z,21.12
2019-03-20T00:04:37.858Z,22.87
2019-03-20T00:07:07.405Z,26.77
2019-03-20T00:09:36.609Z,21.25
2019-03-20T00:12:05.747Z,19.15
2019-03-20T00:14:34.824Z,21.80
2019-03-20T00:17:04.181Z,21.37
2019-03-20T00:19:33.165Z,19.90
2019-03-20T00:22:02.148Z,21.82
2019-03-20T00:24:31.323Z,19.17
2019-03-20T00:27:00.423Z,20.40
2019-03-20T00:29:29.507Z,21.17
2019-03-20T00:32:00.429Z,23.47
2019-03-20T00:34:29.520Z,19.20
2019-03-20T00:36:58.875Z,20.52
2019-03-20T00:39:27.993Z,19.35
2019-03-20T00:41:57.021Z,21.42
2019-03-20T00:44:26.084Z,23.12
2019-03-20T00:46:55.240Z,19.20
2019-03-20T00:49:24.206Z,19.35
2019-03-20T00:51:53.262Z,22.02
2019-03-20T00:54:22.342Z,22.73
2019-03-20T00:56:51.482Z,20.85
2019-03-20T00:59:20.434Z,23.92
2019-03-20T01:01:49.543Z,21.73
2019-03-20T01:04:18.674Z,22.22
2019-03-20T01:06:47.828Z,20.60
2019-03-20T01:09:17.963Z,23.15
2019-03-20T01:11:46.922Z,18.27
2019-03-20T01:14:16.200Z,19.52
2019-03-20T01:16:45.254Z,17.23
2019-03-20T01:19:16.408Z,20.30
2019-03-20T01:21:45.320Z,17.80
2019-03-20T01:24:14.501Z,21.82
2019-03-20T01:26:43.736Z,19.27
2019-03-20T01:29:12.942Z,23.18
2019-03-20T01:31:41.960Z,17.17
2019-03-20T01:34:10.877Z,21.10
2019-03-20T01:36:39.798Z,18.82
2019-03-20T01:39:09.335Z,18.57
2019-03-20T01:41:38.865Z,16.32
2019-03-20T01:44:07.998Z,15.35
2019-03-20T01:46:37.070Z,18.07
2019-03-20T01:49:06.162Z,20.35
2019-03-20T01:51:35.263Z,21.37
2019-03-20T01:54:05.766Z,17.70
2019-03-20T01:56:35.386Z,19.05
2019-03-20T01:59:04.489Z,18.17
2019-03-20T02:01:34.614Z,18.92
2019-03-20T02:04:03.726Z,21.33
2019-03-20T02:06:32.718Z,15.75
2019-03-20T02:09:01.825Z,21.50
2019-03-20T02:11:30.917Z,18.52
2019-03-20T02:13:59.905Z,22.17
2019-03-20T02:16:28.848Z,19.52
2019-03-20T02:18:58.033Z,20.37
2019-03-20T02:21:27.426Z,20.65
2019-03-20T02:23:56.582Z,17.50
2019-03-20T02:26:26.090Z,17.87
2019-03-20T02:29:04.971Z,19.98
2019-03-20T02:31:34.222Z,20.50
2019-03-20T02:34:03.494Z,18.70
2019-03-20T02:36:32.572Z,17.57
2019-03-20T02:39:01.569Z,22.48
2019-03-20T02:41:30.885Z,19.07
2019-03-20T02:44:00.052Z,20.10
2019-03-20T02:46:29.635Z,19.50
2019-03-20T02:48:59.330Z,20.60
2019-03-20T02:51:28.538Z,20.43
2019-03-20T02:53:57.534Z,20.37
2019-03-20T02:56:26.619Z,22.40
2019-03-20T02:58:55.855Z,25.10
2019-03-20T03:01:26.160Z,20.12
2019-03-20T03:03:55.214Z,18.90
2019-03-20T03:06:24.358Z,19.95
2019-03-20T03:08:53.313Z,21.42
2019-03-20T03:11:22.406Z,22.65
2019-03-20T03:13:51.609Z,24.95
2019-03-20T03:16:20.704Z,20.85
2019-03-20T03:18:49.757Z,17.07
2019-03-20T03:21:18.891Z,19.70
2019-03-20T03:23:48.148Z,20.45
2019-03-20T03:26:17.316Z,21.52
2019-03-20T03:28:46.446Z,20.30
2019-03-20T03:31:15.602Z,24.63
2019-03-20T03:33:44.723Z,18.55
2019-03-20T03:36:21.077Z,20.20
2019-03-20T03:38:44.815Z,20.40
2019-03-20T03:41:14.026Z,21.25
2019-03-20T03:43:43.255Z,30.70
2019-03-20T03:46:12.438Z,22.20
2019-03-20T03:48:41.634Z,22.73
2019-03-20T03:51:10.799Z,20.32
2019-03-20T03:53:39.932Z,22.62
2019-03-20T03:56:09.172Z,20.45
2019-03-20T03:58:38.121Z,20.25
2019-03-20T04:01:07.307Z,19.17
2019-03-20T04:03:36.526Z,21.37
2019-03-20T04:06:05.672Z,24.45
2019-03-20T04:08:34.728Z,26.57
2019-03-20T04:11:03.792Z,20.95
2019-03-20T04:13:32.827Z,22.10
2019-03-20T04:16:01.898Z,21.82
2019-03-20T04:18:30.997Z,20.37
2019-03-20T04:21:01.037Z,26.52
2019-03-20T04:23:30.272Z,25.68
2019-03-20T04:26:00.454Z,24.75
2019-03-20T04:28:29.834Z,22.62
2019-03-20T04:30:59.159Z,21.42
2019-03-20T04:33:28.330Z,25.75
2019-03-20T04:36:05.442Z,23.10
2019-03-20T04:38:34.776Z,27.52
2019-03-20T04:41:04.357Z,26.23
2019-03-20T04:43:33.575Z,27.87
2019-03-20T04:46:02.682Z,25.00
2019-03-20T04:48:31.693Z,25.45
2019-03-20T04:51:00.709Z,26.05
2019-03-20T04:53:29.876Z,24.77
2019-03-20T04:55:59.225Z,25.20
2019-03-20T04:58:28.719Z,27.10
2019-03-20T05:00:58.237Z,33.83
2019-03-20T05:03:27.388Z,25.45
2019-03-20T05:05:56.430Z,29.10
2019-03-20T05:08:25.518Z,26.97
2019-03-20T05:10:54.504Z,28.35
2019-03-20T05:13:23.549Z,32.95
2019-03-20T05:15:52.789Z,26.97
2019-03-20T05:18:22.097Z,30.62
2019-03-20T05:20:51.198Z,33.95
2019-03-20T05:23:20.199Z,30.48
2019-03-20T05:25:49.620Z,32.17
2019-03-20T05:28:29.550Z,33.58
2019-03-20T05:30:54.977Z,34.10
2019-03-20T05:33:26.430Z,33.20
2019-03-20T05:35:55.967Z,32.78
2019-03-20T05:38:25.193Z,30.80
2019-03-20T05:41:03.895Z,33.63
2019-03-20T05:43:30.816Z,31.87
2019-03-20T05:46:00.500Z,31.30
2019-03-20T05:48:30.032Z,29.65
2019-03-20T05:50:59.641Z,35.45
2019-03-20T05:53:29.004Z,31.93
2019-03-20T05:57:05.924Z,34.83
2019-03-20T05:59:15.330Z,33.83
2019-03-20T06:01:44.762Z,37.05
2019-03-20T06:04:14.294Z,36.83
2019-03-20T06:06:43.926Z,33.53
2019-03-20T06:09:13.338Z,37.35
2019-03-20T06:11:48.911Z,33.73
2019-03-20T06:14:14.065Z,36.33
2019-03-20T06:16:47.241Z,35.48
2019-03-20T06:19:16.431Z,36.08
2019-03-20T06:21:45.791Z,38.48
2019-03-20T06:24:15.202Z,43.05
2019-03-20T06:26:44.346Z,35.75
2019-03-20T06:29:13.591Z,40.73
2019-03-20T06:32:25.325Z,42.35
2019-03-20T06:34:56.526Z,39.45
2019-03-20T06:37:32.592Z,41.75
2019-03-20T06:40:03.486Z,42.95
2019-03-20T06:42:32.812Z,47.03
2019-03-20T06:45:21.383Z,44.38
2019-03-20T06:47:50.678Z,47.35
2019-03-20T06:50:19.839Z,52.15
2019-03-20T06:52:49.731Z,44.70
2019-03-20T06:55:19.895Z,43.17
2019-03-20T06:58:05.499Z,48.65
2019-03-20T07:01:06.953Z,41.83
2019-03-20T07:03:42.888Z,51.08
2019-03-20T09:04:58.883Z,41.73
2019-03-20T09:13:30.552Z,37.90
2019-03-20T09:16:00.294Z,43.25
2019-03-20T09:18:30.202Z,44.03
2019-03-20T09:20:59.490Z,42.55
2019-03-20T09:23:28.942Z,39.80
2019-03-20T09:26:00.436Z,40.15
2019-03-20T09:28:30.262Z,37.75
2019-03-20T09:30:59.449Z,42.43
2019-03-20T09:33:29.860Z,41.50
2019-03-20T09:35:59.158Z,44.90
2019-03-20T09:38:28.959Z,39.90
2019-03-20T09:41:20.789Z,40.88
2019-03-20T09:44:28.928Z,43.70
2019-03-20T09:46:57.876Z,40.43
2019-03-20T09:49:27.950Z,42.98
2019-03-20T09:51:57.356Z,38.73
2019-03-20T09:54:40.371Z,44.85
2019-03-20T09:57:10.192Z,44.25
2019-03-20T09:59:59.867Z,42.43
2019-03-20T10:02:29.774Z,42.83
2019-03-20T10:04:59.712Z,44.00
2019-03-20T10:07:50.443Z,40.12
2019-03-20T10:10:36.026Z,37.48
2019-03-20T10:13:17.415Z,36.85
2019-03-20T10:16:10.188Z,35.65
2019-03-20T10:18:48.669Z,36.65
2019-03-20T10:21:26.800Z,36.98
2019-03-20T10:23:53.206Z,36.50
2019-03-20T10:26:28.809Z,34.70
2019-03-20T10:29:00.432Z,34.75
2019-03-20T10:31:30.218Z,34.67
2019-03-20T10:33:59.493Z,37.53
2019-03-20T10:36:28.920Z,37.53
2019-03-20T10:39:06.292Z,44.13
2019-03-20T10:41:37.546Z,32.98
2019-03-20T10:44:07.700Z,36.73
2019-03-20T10:46:38.078Z,33.53
2019-03-20T10:49:09.290Z,30.60
2019-03-20T10:51:38.807Z,35.48
2019-03-20T10:54:08.211Z,31.95
2019-03-20T10:56:40.534Z,29.92
2019-03-20T10:59:09.979Z,31.25
2019-03-20T11:01:42.688Z,39.70
2019-03-20T11:04:10.585Z,33.78
2019-03-20T11:06:42.862Z,35.63
2019-03-20T11:09:18.432Z,33.30
2019-03-20T11:11:50.679Z,34.58
2019-03-20T11:14:19.898Z,37.60
2019-03-20T11:16:56.445Z,34.67
2019-03-20T11:19:36.779Z,30.17
2019-03-20T11:22:19.185Z,29.90
2019-03-20T11:24:58.921Z,32.53
2019-03-20T11:27:29.382Z,35.35
2019-03-20T11:29:58.685Z,30.80
2019-03-20T11:32:27.912Z,33.38
2019-03-20T11:34:59.577Z,30.70
2019-03-20T11:37:31.275Z,31.20
2019-03-20T11:40:00.655Z,29.70
2019-03-20T11:42:30.003Z,30.37
2019-03-20T11:45:02.619Z,31.73
2019-03-20T11:47:35.951Z,25.77
2019-03-20T11:50:15.677Z,29.50
2019-03-20T11:53:08.630Z,28.23
2019-03-20T11:59:46.717Z,37.78
2019-03-20T12:02:28.351Z,28.95
2019-03-20T12:05:18.702Z,29.32
2019-03-20T12:12:07.595Z,26.87
2019-03-20T12:15:37.229Z,39.90
2019-03-20T12:18:07.435Z,30.92
2019-03-20T12:20:40.027Z,26.17
2019-03-20T12:23:12.138Z,24.35
2019-03-20T12:26:47.817Z,26.00
2019-03-20T12:31:47.996Z,23.62
2019-03-20T12:34:18.732Z,29.20
2019-03-20T12:36:49.836Z,26.45
2019-03-20T12:39:56.371Z,25.72
2019-03-20T12:42:37.702Z,25.20
2019-03-20T12:44:50.149Z,21.77
2019-03-20T12:47:20.647Z,20.25
2019-03-20T12:49:49.747Z,22.90
2019-03-20T12:52:18.822Z,20.95
2019-03-20T12:54:47.918Z,22.98
2019-03-20T12:57:29.608Z,25.10
2019-03-20T13:00:09.569Z,19.00
2019-03-20T13:03:00.215Z,25.85
2019-03-20T13:09:09.723Z,19.62
2019-03-20T13:11:20.167Z,26.20
2019-03-20T13:13:49.380Z,24.47
2019-03-20T13:16:18.596Z,20.35
2019-03-20T13:19:29.855Z,21.52
2019-03-20T13:32:03.634Z,22.80
2019-03-20T13:34:37.010Z,16.45
2019-03-20T13:40:22.088Z,16.95
2019-03-20T13:43:29.866Z,20.97
2019-03-20T13:45:59.534Z,23.38
2019-03-20T13:49:08.518Z,22.55
2019-03-20T13:51:37.795Z,17.62
2019-03-20T13:54:09.286Z,17.67
2019-03-20T13:56:38.503Z,15.63
2019-03-20T13:59:07.601Z,18.17
2019-03-20T14:01:38.378Z,18.40
2019-03-20T14:04:07.473Z,20.32
2019-03-20T14:06:36.617Z,17.57
2019-03-20T14:09:10.278Z,14.50
2019-03-20T14:11:39.505Z,17.35
2019-03-20T14:14:21.048Z,20.57
2019-03-20T14:17:39.986Z,19.10
2019-03-20T14:23:21.624Z,15.30
2019-03-20T14:25:55.029Z,19.98
2019-03-20T14:28:27.579Z,16.42
2019-03-20T14:30:58.006Z,13.15
2019-03-20T14:33:25.917Z,18.32
2019-03-20T14:35:55.061Z,18.25
2019-03-20T14:38:24.146Z,17.37
2019-03-20T14:40:55.087Z,17.42
2019-03-20T14:43:25.792Z,18.23
2019-03-20T14:45:59.365Z,17.20
2019-03-20T14:48:29.185Z,17.02
2019-03-20T14:51:02.333Z,16.87
2019-03-20T14:53:37.230Z,15.60
2019-03-20T14:56:05.570Z,16.17
2019-03-20T14:58:38.078Z,24.07
2019-03-20T15:01:08.700Z,13.95
2019-03-20T15:03:37.852Z,16.40
2019-03-20T15:12:32.960Z,13.80
2019-03-20T15:15:03.690Z,15.85
2019-03-20T15:18:40.584Z,14.05
2019-03-20T15:20:29.886Z,19.32
2019-03-20T15:23:07.661Z,15.18
2019-03-20T15:29:07.119Z,18.57
2019-03-20T15:31:41.018Z,12.93
2019-03-20T16:23:30.072Z,12.82
2019-03-20T16:26:12.723Z,12.63
2019-03-20T16:28:45.397Z,11.22
2019-03-20T16:37:47.035Z,13.48
2019-03-20T16:40:26.268Z,8.93
2019-03-20T16:42:57.022Z,9.48
2019-03-20T16:45:36.559Z,10.25
2019-03-20T16:48:36.936Z,11.57
2019-03-20T16:51:02.387Z,8.58
2019-03-20T16:53:31.669Z,9.73
2019-03-20T16:56:01.137Z,10.35
2019-03-20T16:58:30.500Z,10.82
2019-03-20T17:00:59.592Z,12.28
2019-03-20T17:03:28.834Z,11.85
2019-03-20T17:05:59.174Z,10.50
2019-03-20T17:08:29.263Z,14.65
2019-03-20T17:10:58.686Z,16.35
2019-03-20T17:13:38.354Z,17.30
2019-03-20T17:16:04.076Z,13.68
2019-03-20T17:18:35.487Z,14.40
2019-03-20T17:22:08.745Z,15.38
2019-03-20T17:24:39.205Z,11.18
2019-03-20T17:27:13.349Z,12.68
2019-03-20T17:29:42.557Z,14.98
2019-03-20T17:32:11.761Z,11.90
2019-03-20T17:35:17.581Z,12.05
2019-03-20T17:37:50.447Z,13.83
2019-03-20T17:40:19.940Z,13.53
2019-03-20T17:43:09.108Z,16.27
2019-03-20T17:45:50.887Z,14.35
2019-03-20T17:48:53.847Z,17.32
2019-03-20T17:51:40.241Z,12.80
2019-03-20T17:54:13.485Z,18.65
2019-03-20T18:03:34.222Z,14.23
2019-03-20T19:12:13.751Z,14.25
2019-03-20T19:12:44.062Z,12.95
2019-03-20T19:16:43.643Z,12.33
2019-03-20T19:20:36.171Z,14.38
2019-03-20T19:23:32.919Z,15.10
2019-03-20T19:29:43.128Z,11.73
2019-03-20T19:32:54.305Z,11.48
2019-03-20T20:16:46.067Z,14.03
2019-03-20T20:19:22.873Z,17.80
2019-03-20T20:23:04.216Z,17.57
2019-03-20T20:24:53.664Z,17.45
2019-03-20T20:35:06.896Z,19.37
2019-03-20T20:37:45.624Z,15.20
2019-03-20T20:40:16.145Z,17.02
2019-03-20T20:42:45.538Z,16.87
2019-03-20T20:45:22.307Z,16.87
2019-03-20T20:47:48.849Z,17.30
2019-03-20T20:50:24.538Z,15.98
2019-03-20T20:52:53.756Z,16.95
2019-03-20T20:55:33.460Z,17.32
2019-03-20T20:58:06.879Z,15.58
2019-03-20T21:00:36.058Z,13.95
2019-03-20T21:03:05.666Z,16.93
2019-03-20T21:12:07.138Z,15.72
2019-03-20T21:14:36.796Z,15.38
2019-03-20T21:20:27.206Z,13.65
2019-03-20T21:27:35.228Z,15.10
2019-03-20T21:30:44.003Z,12.05
2019-03-20T21:37:16.746Z,17.05
2019-03-20T21:40:33.392Z,12.73
2019-03-20T21:43:37.351Z,18.27
2019-03-20T21:46:53.718Z,16.73
2019-03-20T21:49:36.895Z,13.50
2019-03-20T21:52:15.151Z,15.18
2019-03-20T21:55:27.714Z,15.18
2019-03-20T21:58:12.624Z,15.48
2019-03-20T22:01:40.699Z,15.08
2019-03-20T22:04:10.519Z,15.65
2019-03-20T22:07:09.517Z,17.87
2019-03-20T22:10:30.237Z,18.40
2019-03-20T22:13:46.634Z,16.02
2019-03-20T22:16:58.678Z,19.23
2019-03-20T22:19:44.459Z,14.23
2019-03-20T22:22:37.233Z,17.65
2019-03-20T22:26:01.237Z,15.48
2019-03-20T22:28:54.674Z,17.32
2019-03-20T22:31:23.943Z,16.23
2019-03-20T22:34:24.611Z,16.75
2019-03-20T22:36:57.112Z,20.32
2019-03-20T22:40:02.075Z,18.50
2019-03-20T22:43:05.972Z,17.07
2019-03-20T22:46:06.272Z,20.95
2019-03-20T23:09:34.678Z,18.40
2019-03-20T23:12:09.155Z,17.00
2019-03-20T23:14:46.839Z,22.32
2019-03-20T23:17:17.224Z,22.80
2019-03-20T23:19:49.369Z,17.10
